LN-KFK er i normal drift med 2 forbehold PDF Skriv ut E-post
Skrevet av Per Norgaard   
mandag 13. november 2017 14:36

Motorvarmeren på LN-KFK er byttet og flyet kan bookes på vanlig måte.

Husk om 2 viktige FORBEHOLD:

1. Under cruise SKAL man ha minst 65% av effekt. Det betyr at ALLE må sjekke Cruise Performance-tabeller (Kap. 5 i POH) for å finne ut turtallet for høyde man har tenkt å fly i. Dette er kjempeviktig for å få en god innkjøring på motoren. De fleste vil nok oppleve at denne powersettingen vil være noe høyere enn vanlig men det er nødvendig å gjøre.

2. Inntil videre SKAL vi kun bruke olje fra RØDE oljeflasker som står i skapet. Husk å registrere påfyll av olje i myWeblog.

Ellers kan flyet flys som normalt, husk å bruke motorvarmeren og sovepose for å dekke cowlingen.

 

Sist oppdatert lørdag 17. februar 2018 10:37
 
 
METAR
2018/08/14 10:50 ENCN 141050Z 05006KT 360V090 9999 FEW017 BKN039 18/12 Q1008
TAF
2018/08/14 09:36 TAF TAF ENCN 140800Z 1409/1418 04008KT 9999 SCT017 BKN030 TEMPO 1415/1418 18010KT
LN-KFK
< 10 timer til service
VFR dag
04:59 - 22:04
Brannvakt
Inaktiv
Banner
Banner
Banner
Banner
Banner